WetterOnline ( https://www.wetteronline.de )

Wetter aktuell Stuttgart

Aktuelles Wetter: Schnarrenberg/Stuttgart (315m)

6-stündlich | Neueste Meldungen
Ortszeit Temperatur Wetter
So, 20.06. 2:00 26.1° C wolkig
Sa, 19.06. 20:00 30.4° C wolkenlos
Sa, 19.06. 14:00 30.5° C leicht bewölkt
Sa, 19.06. 8:00 22.9° C wolkig
Sa, 19.06. 2:00 24.2° C wolkig
Fr, 18.06. 20:00 30.3° C leicht bewölkt
Fr, 18.06. 14:00 31.5° C wolkig
Fr, 18.06. 8:00 22.5° C wolkenlos
Ortszeit Temperatur Wetter
So, 20.06. 2:30 25.8° C bedeckt
So, 20.06. 2:20 25.8° C bedeckt
So, 20.06. 2:10 26.0° C bedeckt
So, 20.06. 2:00 26.1° C wolkig
So, 20.06. 1:50 26.1° C wolkig
So, 20.06. 1:40 26.0° C wolkig
So, 20.06. 1:30 26.0° C wolkig
So, 20.06. 1:00 25.4° C bedeckt
Ortszeit Relative Feuchte Sichtweite
So, 20.06. 2:00 58% 40 km
Sa, 19.06. 20:00 43% 55 km
Sa, 19.06. 14:00 40% 40 km
Sa, 19.06. 8:00 66% 50 km
Sa, 19.06. 2:00 52% 40 km
Fr, 18.06. 20:00 32% 60 km
Fr, 18.06. 14:00 31% 65 km
Fr, 18.06. 8:00 62% 40 km
Ortszeit Relative Feuchte Sichtweite
So, 20.06. 2:30 57% 45 km
So, 20.06. 2:20 57% -
So, 20.06. 2:10 57% -
So, 20.06. 2:00 58% 40 km
So, 20.06. 1:50 58% -
So, 20.06. 1:40 58% -
So, 20.06. 1:30 60% 40 km
So, 20.06. 1:00 64% 35 km
Ortszeit Niederschlagsmenge Niederschlagsart
So, 20.06. 2:00 0.0 l/m2 in 6 Std. -
Sa, 19.06. 20:00 0.0 l/m2 in 12 Std. -
Sa, 19.06. 14:00 0.0 l/m2 in 6 Std. -
Sa, 19.06. 8:00 0.1 l/m2 in 12 Std. Regen
Sa, 19.06. 2:00 0.0 l/m2 in 6 Std. -
Fr, 18.06. 20:00 0.0 l/m2 in 12 Std. -
Fr, 18.06. 14:00 0.0 l/m2 in 6 Std. -
Fr, 18.06. 8:00 0.0 l/m2 in 12 Std. -
Ortszeit Niederschlagsmenge Niederschlagsart
So, 20.06. 2:30 0.0 l/m2 in 1 Std. -
So, 20.06. 2:20 keine Meldung -
So, 20.06. 2:10 keine Meldung -
So, 20.06. 2:00 0.0 l/m2 in 1 Std. -
So, 20.06. 1:50 keine Meldung -
So, 20.06. 1:40 keine Meldung -
So, 20.06. 1:30 0.0 l/m2 in 1 Std. -
So, 20.06. 1:00 0.0 l/m2 in 1 Std. -
Ortszeit Stärke Spitze Richtung
km/h Bft. km/h Grad Sektor
So, 20.06. 2:00 15 3 24 150° SO
Sa, 19.06. 20:00 19 3 28 130° SO
Sa, 19.06. 14:00 9 2 26 110° O
Sa, 19.06. 8:00 4 1 50 240° SW
Sa, 19.06. 2:00 22 4 40 280° W
Fr, 18.06. 20:00 2 1 22 70° O
Fr, 18.06. 14:00 7 2 18 20° N
Fr, 18.06. 8:00 6 1 31 150° SO
Ortszeit Stärke Spitze Richtung
km/h Bft. km/h Grad Sektor
So, 20.06. 2:30 11 2 20 150° SO
So, 20.06. 2:20 11 2 - 150° SO
So, 20.06. 2:10 15 3 - 150° SO
So, 20.06. 2:00 15 3 22 150° SO
So, 20.06. 1:50 15 3 - 150° SO
So, 20.06. 1:40 18 3 - 150° SO
So, 20.06. 1:30 14 3 22 150° SO
So, 20.06. 1:00 11 2 17 140° SO
Ortszeit Untergrenze Bedeckung Gattung
total tief tief mittel hoch
So, 20.06. 2:00 4800 m 8/8 1/8 - - -
Sa, 19.06. 20:00 9000 m 0/8 0/8 - - -
Sa, 19.06. 14:00 9000 m 8/8 0/8 - - -
Sa, 19.06. 8:00 3600 m 6/8 2/8 - - -
Sa, 19.06. 2:00 2700 m 8/8 1/8 - - -
Fr, 18.06. 20:00 5100 m 3/8 1/8 - - -
Fr, 18.06. 14:00 4200 m 8/8 4/8 - - -
Fr, 18.06. 8:00 - 0/8 0/8 - - -
Ortszeit Bedeckungsgrad in Achtel und Wolkenuntergrenze
So, 20.06. 2:30 2(4800m) 8(6000m)
So, 20.06. 2:20 2(4800m) 8(6000m)
So, 20.06. 2:10 2(4800m) 8(6300m) 8(9000m)
So, 20.06. 2:00 1(4800m) 8(9000m) 8(10500m)
So, 20.06. 1:50 1(4800m) 8(9000m) 8(10500m)
So, 20.06. 1:40 4(7200m) 8(9000m) 8(10500m)
So, 20.06. 1:30 1(4500m) 5(7500m) 8(8700m)
So, 20.06. 1:00 7(4200m) 8(5100m) 8(6000m)
Ortszeit Luftdruck NN (hPa) Tendenz (hPa in 3 Std.)
So, 20.06. 2:00 1009 - 0,7
Sa, 19.06. 20:00 1009 - 1,9
Sa, 19.06. 14:00 1013 - 1,9
Sa, 19.06. 8:00 1016 + 1,9
Sa, 19.06. 2:00 1014 + 0,7
Fr, 18.06. 20:00 1011 0,0
Fr, 18.06. 14:00 1012 - 0,7
Fr, 18.06. 8:00 1014 + 1,0
Ortszeit Luftdruck NN (hPa) Tendenz (hPa in 3 Std.)
So, 20.06. 2:30 1009 - 0,8
So, 20.06. 2:20 1009 keine Meldung
So, 20.06. 2:10 1009 keine Meldung
So, 20.06. 2:00 1009 - 0,7
So, 20.06. 1:50 1009 keine Meldung
So, 20.06. 1:40 1009 keine Meldung
So, 20.06. 1:30 1009 - 1,0
So, 20.06. 1:00 1009 - 0,7
Ortszeit Schneehöhe (cm)
So, 20.06. 2:00 -
Sa, 19.06. 20:00 -
Sa, 19.06. 14:00 -
Sa, 19.06. 8:00 -
Sa, 19.06. 2:00 -
Fr, 18.06. 20:00 -
Fr, 18.06. 14:00 -
Fr, 18.06. 8:00 -
Ortszeit Schneehöhe (cm)
So, 20.06. 2:30 -
So, 20.06. 2:20 -
So, 20.06. 2:10 -
So, 20.06. 2:00 -
So, 20.06. 1:50 -
So, 20.06. 1:40 -
So, 20.06. 1:30 -
So, 20.06. 1:00 -
Link zu dieser Seite / Seite empfehlen

Das Wetter in ...